This is the latest recevied weather packets stored in our database for station/object KQ4LLM. If no packets are shown the sender has not sent any weather packets the latest 1 day(s).
| Time | Temp. | Humidity | Pressure | Rain* | Wind** | Luminosity | Snow |
|---|---|---|---|---|---|---|---|
| 1778101556 | 24.44° C | 70% | - | 0 mm | - | - | - |
| 1778100343 | 25° C | 68% | - | 0 mm | - | - | - |
| 1778098526 | 25° C | 68% | - | 0 mm | - | - | - |
| 1778098222 | 25° C | 67% | - | 0 mm | - | - | - |
| 1778097615 | 25° C | 66% | - | 0 mm | - | - | - |
| 1778096706 | 25.56° C | 65% | - | 0 mm | - | - | - |
| 1778095488 | 25.56° C | 65% | - | 0 mm | - | - | - |
| 1778094577 | 25.56° C | 66% | - | 0 mm | - | - | - |
| 1778094274 | 25.56° C | 67% | - | 0 mm | - | - | - |
| 1778093971 | 25° C | 67% | - | 0 mm | - | - | - |
| 1778093365 | 23.89° C | 69% | - | 0 mm | - | - | - |
| 1778092454 | 24.44° C | 68% | - | 0 mm | - | - | - |
| 1778091849 | 23.89° C | 72% | - | 0 mm | - | - | - |
| 1778091546 | 23.33° C | 73% | - | 0 mm | - | - | - |
| 1778090941 | 22.78° C | 74% | - | 0 mm | - | - | - |
| 1778090030 | 23.33° C | 74% | - | 0 mm | - | - | - |
| 1778088516 | 21.67° C | 80% | - | 0 mm | - | - | - |
| 1778087910 | 21.11° C | 79% | - | 0 mm | - | - | - |
| 1778087305 | 20.56° C | 80% | - | 0 mm | - | - | - |
| 1778085784 | 21.67° C | 74% | - | 0 mm | - | - | - |
| 1778085481 | 21.11° C | 76% | - | 0 mm | - | - | - |
| 1778085176 | 21.11° C | 75% | - | 0 mm | - | - | - |
| 1778084872 | 21.11° C | 76% | - | 0 mm | - | - | - |
| 1778084570 | 21.11° C | 76% | - | 0 mm | - | - | - |
| 1778084267 | 21.11° C | 77% | - | 0 mm | - | - | - |
* Rain latest hour (hover to see other rain measurements)
** Current wind speed in m/s (hover to see current wind gust speed)